Terminal Aerodrome Forecast
Issued by NWS

Home | Current Version | Previous Version | Text Only | Print | Product List | Glossary On
Versions: 1 2 3 4 5 6 7 8 9 10 11 12 13 14 15 16 17 18 19 20 21 22 23 24
000
FTUS45 KPSR 022320
TAFPHX
TAF
KPHX 022320Z 0300/0324 30012KT P6SM BKN100 OVC140
     FM030400 35006KT P6SM SCT100 BKN150 BKN200
     FM030900 05005KT P6SM FEW100 SCT140
      TEMPO 0311/0315 VRB04KT
     FM031500 02012G16KT P6SM FEW080 SCT110
     FM032200 32008KT P6SM FEW080=

USA.gov is the U.S. government's official web portal to all federal, state and local government web resources and services.